createdAt,value
2019-03-18T00:02:05.517Z,76.20
2019-03-18T00:06:12.441Z,76.71
2019-03-18T00:10:19.391Z,77.48
2019-03-18T00:14:26.266Z,78.25
2019-03-18T00:18:34.158Z,78.46
2019-03-18T00:22:40.970Z,78.79
2019-03-18T00:26:49.570Z,79.29
2019-03-18T00:30:56.565Z,79.10
2019-03-18T00:35:03.522Z,78.86
2019-03-18T00:39:10.783Z,79.05
2019-03-18T00:43:17.649Z,79.76
2019-03-18T00:47:24.612Z,79.05
2019-03-18T00:51:31.482Z,79.17
2019-03-18T00:55:38.331Z,79.05
2019-03-18T00:59:45.233Z,79.59
2019-03-18T01:03:52.102Z,79.84
2019-03-18T01:07:59.060Z,80.00
2019-03-18T01:12:05.944Z,80.27
2019-03-18T01:16:12.837Z,80.74
2019-03-18T01:20:19.795Z,80.91
2019-03-18T01:24:26.663Z,80.66
2019-03-18T01:28:33.473Z,80.94
2019-03-18T01:32:40.321Z,80.92
2019-03-18T01:36:47.152Z,80.76
2019-03-18T01:40:53.987Z,80.65
2019-03-18T01:45:00.880Z,80.20
2019-03-18T01:49:07.770Z,80.37
2019-03-18T01:53:14.662Z,80.30
2019-03-18T01:57:21.494Z,80.11
2019-03-18T02:01:28.326Z,80.31
2019-03-18T02:05:35.245Z,80.24
2019-03-18T02:09:42.039Z,80.10
2019-03-18T02:13:48.888Z,80.12
2019-03-18T02:17:56.870Z,79.90
2019-03-18T02:22:03.697Z,80.05
2019-03-18T02:26:10.694Z,80.11
2019-03-18T02:30:17.671Z,80.00
2019-03-18T02:34:24.608Z,79.94
2019-03-18T02:38:31.494Z,79.77
2019-03-18T02:42:39.403Z,79.97
2019-03-18T02:46:47.345Z,79.88
2019-03-18T02:50:54.219Z,79.76
2019-03-18T02:55:02.155Z,79.52
2019-03-18T02:59:11.387Z,79.53
2019-03-18T03:03:18.284Z,79.22
2019-03-18T03:07:26.278Z,78.83
2019-03-18T03:11:34.435Z,78.84
2019-03-18T03:15:41.578Z,78.97
2019-03-18T03:19:48.456Z,79.48
2019-03-18T03:23:55.275Z,79.66
2019-03-18T03:28:03.911Z,79.74
2019-03-18T03:32:10.721Z,79.74
2019-03-18T03:36:17.715Z,80.14
2019-03-18T03:40:24.652Z,80.22
2019-03-18T03:44:31.544Z,80.25
2019-03-18T03:48:38.443Z,79.91
2019-03-18T03:52:45.368Z,79.85
2019-03-18T03:56:53.527Z,79.55
2019-03-18T04:01:00.454Z,79.32
2019-03-18T04:05:07.522Z,79.33
2019-03-18T04:09:14.405Z,79.36
2019-03-18T04:13:21.402Z,79.38
2019-03-18T04:17:28.203Z,79.18
2019-03-18T04:21:35.071Z,79.17
2019-03-18T04:25:41.859Z,78.91
2019-03-18T04:29:48.680Z,78.76
2019-03-18T04:33:55.570Z,78.81
2019-03-18T04:38:05.414Z,78.62
2019-03-18T04:42:12.289Z,78.34
2019-03-18T04:46:19.159Z,78.12
2019-03-18T04:50:27.374Z,78.02
2019-03-18T04:54:34.513Z,77.85
2019-03-18T04:58:41.331Z,77.76
2019-03-18T05:02:48.322Z,77.35
2019-03-18T05:06:57.106Z,76.88
2019-03-18T05:11:04.052Z,76.65
2019-03-18T05:15:11.773Z,76.69
2019-03-18T05:19:19.016Z,76.29
2019-03-18T05:23:26.237Z,76.65
2019-03-18T05:27:33.171Z,76.20
2019-03-18T05:31:40.310Z,76.08
2019-03-18T05:35:47.335Z,76.23
2019-03-18T05:39:54.251Z,76.38
2019-03-18T05:44:02.355Z,76.09
2019-03-18T05:48:09.474Z,76.41
2019-03-18T05:52:19.782Z,76.71
2019-03-18T05:57:26.746Z,76.88
2019-03-18T06:01:23.552Z,76.95
2019-03-18T06:05:34.345Z,76.63
2019-03-18T06:09:41.170Z,76.65
2019-03-18T06:13:48.090Z,76.70
2019-03-18T06:17:56.689Z,76.72
2019-03-18T06:22:03.631Z,76.84
2019-03-18T06:26:10.637Z,76.76
2019-03-18T06:30:18.038Z,76.63
2019-03-18T06:34:25.478Z,76.57
2019-03-18T06:38:32.732Z,76.37
2019-03-18T06:42:40.380Z,76.23
2019-03-18T06:46:47.393Z,75.85
2019-03-18T06:50:54.496Z,76.22
2019-03-18T06:55:01.658Z,75.48
2019-03-18T06:59:08.858Z,75.17
2019-03-18T07:03:15.758Z,74.99
2019-03-18T07:07:22.566Z,75.00
2019-03-18T07:11:29.672Z,74.70
2019-03-18T07:15:36.641Z,74.91
2019-03-18T07:19:43.728Z,74.27
2019-03-18T07:23:50.664Z,74.10
2019-03-18T07:27:57.915Z,74.15
2019-03-18T07:32:06.195Z,73.81
2019-03-18T07:36:14.392Z,73.32
2019-03-18T07:40:21.351Z,72.45
2019-03-18T07:44:28.125Z,72.80
2019-03-18T07:48:34.913Z,72.86
2019-03-18T07:52:41.902Z,71.91
2019-03-18T07:56:48.731Z,71.90
2019-03-18T08:00:55.782Z,70.77
2019-03-18T08:05:02.769Z,69.96
2019-03-18T08:09:10.990Z,70.27
2019-03-18T08:13:20.479Z,69.42
2019-03-18T08:17:27.527Z,69.36
2019-03-18T08:21:34.400Z,69.20
2019-03-18T08:25:41.292Z,68.83
2019-03-18T08:29:48.156Z,69.07
2019-03-18T08:33:55.135Z,69.04
2019-03-18T08:38:01.973Z,68.44
2019-03-18T08:42:08.913Z,68.85
2019-03-18T08:46:15.727Z,68.53
2019-03-18T08:50:22.849Z,68.41
2019-03-18T08:54:29.734Z,68.62
2019-03-18T08:58:36.633Z,67.71
2019-03-18T09:02:43.468Z,67.12
2019-03-18T09:06:50.387Z,67.60
2019-03-18T09:10:57.376Z,66.94
2019-03-18T09:15:05.616Z,66.98
2019-03-18T09:19:12.606Z,67.10
2019-03-18T09:23:19.580Z,66.12
2019-03-18T09:27:27.457Z,65.86
2019-03-18T09:31:36.423Z,65.28
2019-03-18T09:35:43.405Z,65.25
2019-03-18T09:39:50.337Z,64.38
2019-03-18T09:43:57.365Z,64.28
2019-03-18T09:48:04.389Z,64.57
2019-03-18T09:52:11.227Z,64.33
2019-03-18T09:56:18.180Z,65.30
2019-03-18T10:00:25.045Z,65.92
2019-03-18T10:04:31.932Z,66.05
2019-03-18T10:08:38.820Z,66.62
2019-03-18T10:12:45.712Z,66.42
2019-03-18T10:16:52.654Z,65.22
2019-03-18T10:20:59.581Z,64.99
2019-03-18T10:25:06.850Z,63.88
2019-03-18T10:29:13.981Z,63.63
2019-03-18T10:33:20.871Z,61.30
2019-03-18T10:37:27.885Z,60.81
2019-03-18T10:41:37.854Z,58.97
2019-03-18T10:45:44.943Z,58.63
2019-03-18T10:49:52.152Z,57.67
2019-03-18T10:53:59.421Z,57.80
2019-03-18T10:58:06.338Z,57.96
2019-03-18T11:02:13.279Z,56.54
2019-03-18T11:06:20.300Z,56.83
2019-03-18T11:10:27.289Z,56.37
2019-03-18T11:14:34.202Z,55.90
2019-03-18T11:18:41.020Z,55.21
2019-03-18T11:22:47.953Z,54.36
2019-03-18T11:26:55.432Z,53.87
2019-03-18T11:31:02.466Z,54.63
2019-03-18T11:35:10.257Z,55.24
2019-03-18T11:39:17.189Z,57.42
2019-03-18T11:43:24.233Z,64.53
2019-03-18T11:47:31.238Z,66.92
2019-03-18T11:51:38.301Z,68.64
2019-03-18T11:55:45.197Z,67.79
2019-03-18T11:59:52.082Z,68.30
2019-03-18T12:03:58.947Z,68.31
2019-03-18T12:08:05.865Z,63.23
2019-03-18T12:12:27.418Z,65.83
2019-03-18T12:16:36.191Z,62.54
2019-03-18T12:20:43.255Z,62.86
2019-03-18T12:24:50.289Z,63.64
2019-03-18T12:28:57.217Z,58.36
2019-03-18T12:33:04.202Z,59.36
2019-03-18T12:37:11.091Z,60.28
2019-03-18T12:41:18.257Z,60.56
2019-03-18T12:45:25.892Z,60.95
2019-03-18T12:49:32.862Z,60.20
2019-03-18T12:53:39.766Z,60.78
2019-03-18T12:57:46.557Z,60.47
2019-03-18T13:01:53.579Z,58.32
2019-03-18T13:06:00.512Z,56.18
2019-03-18T13:10:10.191Z,52.86
2019-03-18T13:14:17.079Z,49.33
2019-03-18T13:18:23.839Z,45.65
2019-03-18T13:22:31.871Z,43.99
2019-03-18T13:26:38.695Z,42.70
2019-03-18T13:30:45.637Z,43.85
2019-03-18T13:34:52.537Z,48.10
2019-03-18T13:38:59.337Z,50.19
2019-03-18T13:43:06.216Z,53.17
2019-03-18T13:47:13.047Z,53.46
2019-03-18T13:51:21.228Z,51.58
2019-03-18T13:55:28.354Z,48.52
2019-03-18T13:59:35.359Z,48.95
2019-03-18T14:03:42.166Z,50.15
2019-03-18T14:07:59.368Z,50.01
2019-03-18T14:11:57.957Z,51.14
2019-03-18T14:16:04.919Z,50.43
2019-03-18T14:20:14.085Z,50.10
2019-03-18T14:24:21.005Z,48.15
2019-03-18T14:28:27.849Z,46.51
2019-03-18T14:32:34.798Z,45.23
2019-03-18T14:36:41.686Z,45.61
2019-03-18T14:40:48.576Z,44.96
2019-03-18T14:44:55.537Z,44.59
2019-03-18T14:49:02.537Z,45.00
2019-03-18T14:53:10.676Z,44.60
2019-03-18T14:57:17.666Z,44.85
2019-03-18T15:01:24.745Z,44.64
2019-03-18T15:05:31.806Z,44.47
2019-03-18T15:09:38.744Z,45.28
2019-03-18T15:13:46.936Z,45.12
2019-03-18T15:17:54.140Z,45.36
2019-03-18T15:22:01.129Z,46.30
2019-03-18T15:26:18.488Z,47.62
2019-03-18T15:30:26.255Z,49.03
2019-03-18T15:34:33.605Z,49.44
2019-03-18T15:38:41.940Z,54.24
2019-03-18T15:42:48.930Z,55.73
2019-03-18T15:47:00.754Z,55.78
2019-03-18T15:51:09.134Z,57.34
2019-03-18T15:55:16.158Z,57.89
2019-03-18T15:59:23.135Z,57.58
2019-03-18T16:03:30.019Z,56.34
2019-03-18T16:07:37.008Z,55.78
2019-03-18T16:11:43.927Z,55.51
2019-03-18T16:15:54.708Z,55.54
2019-03-18T16:20:02.001Z,54.84
2019-03-18T16:24:08.881Z,53.83
2019-03-18T16:28:15.768Z,54.48
2019-03-18T16:32:22.653Z,55.50
2019-03-18T16:36:30.122Z,53.48
2019-03-18T16:40:37.129Z,52.53
2019-03-18T16:44:45.893Z,51.12
2019-03-18T16:48:56.162Z,49.74
2019-03-18T16:53:03.260Z,51.42
2019-03-18T16:57:10.080Z,50.05
2019-03-18T17:01:28.937Z,50.99
2019-03-18T17:05:36.501Z,50.44
2019-03-18T17:09:43.324Z,51.64
2019-03-18T17:13:50.099Z,51.65
2019-03-18T17:17:58.234Z,51.89
2019-03-18T17:22:05.220Z,54.55
2019-03-18T17:26:12.118Z,54.05
2019-03-18T17:30:19.479Z,53.35
2019-03-18T17:34:26.296Z,53.79
2019-03-18T17:38:33.291Z,54.84
2019-03-18T17:42:40.186Z,55.09
2019-03-18T17:46:47.242Z,55.60
2019-03-18T17:50:54.278Z,56.06
2019-03-18T17:55:01.199Z,57.28
2019-03-18T17:59:09.545Z,57.29
2019-03-18T18:03:18.626Z,58.00
2019-03-18T18:07:27.860Z,58.51
2019-03-18T18:11:37.314Z,58.89
2019-03-18T18:15:44.203Z,59.33
2019-03-18T18:19:51.382Z,60.01
2019-03-18T18:23:59.865Z,60.37
2019-03-18T18:28:06.819Z,60.48
2019-03-18T18:32:13.872Z,60.56
2019-03-18T18:36:20.835Z,61.22
2019-03-18T18:40:32.405Z,60.95
2019-03-18T18:44:39.865Z,61.27
2019-03-18T18:48:46.827Z,61.18
2019-03-18T18:52:53.902Z,61.27
2019-03-18T18:57:01.735Z,61.60
2019-03-18T19:01:09.731Z,61.46
2019-03-18T19:05:17.388Z,61.71
2019-03-18T19:09:24.717Z,61.94
2019-03-18T19:13:31.750Z,65.16
2019-03-18T19:17:38.729Z,65.05
2019-03-18T19:21:47.345Z,63.11
2019-03-18T19:25:54.511Z,62.57
2019-03-18T19:30:08.640Z,62.12
2019-03-18T19:34:15.972Z,61.69
2019-03-18T19:38:25.649Z,61.06
2019-03-18T19:42:32.880Z,61.03
2019-03-18T19:46:40.076Z,60.85
2019-03-18T19:50:46.948Z,60.97
2019-03-18T19:54:54.045Z,60.74
2019-03-18T19:59:04.309Z,61.09
2019-03-18T20:03:11.149Z,61.36
2019-03-18T20:07:19.335Z,60.59
2019-03-18T20:11:26.293Z,60.37
2019-03-18T20:15:33.255Z,60.70
2019-03-18T20:19:40.162Z,60.71
2019-03-18T20:23:47.495Z,59.95
2019-03-18T20:27:55.143Z,60.00
2019-03-18T20:32:02.125Z,60.62
2019-03-18T20:36:09.198Z,59.34
2019-03-18T20:40:17.811Z,59.65
2019-03-18T20:44:24.798Z,60.24
2019-03-18T20:48:31.877Z,60.64
2019-03-18T20:52:38.950Z,60.50
2019-03-18T20:56:45.990Z,62.97
2019-03-18T21:00:53.163Z,61.61
2019-03-18T21:05:00.767Z,61.56
2019-03-18T21:09:08.928Z,62.37
2019-03-18T21:13:17.187Z,62.23
2019-03-18T21:17:24.330Z,62.64
2019-03-18T21:21:31.563Z,63.02
2019-03-18T21:25:38.504Z,62.97
2019-03-18T21:29:45.430Z,66.33
2019-03-18T21:33:52.346Z,66.83
2019-03-18T21:38:00.323Z,63.96
2019-03-18T21:42:07.272Z,65.24
2019-03-18T21:46:18.512Z,63.58
2019-03-18T21:50:25.653Z,63.42
2019-03-18T21:54:34.386Z,62.98
2019-03-18T21:58:43.611Z,63.14
2019-03-18T22:02:52.132Z,63.16
2019-03-18T22:06:59.068Z,63.10
2019-03-18T22:11:05.962Z,63.09
2019-03-18T22:15:14.111Z,63.28
2019-03-18T22:19:20.947Z,63.27
2019-03-18T22:23:27.834Z,63.51
2019-03-18T22:27:34.656Z,63.82
2019-03-18T22:31:41.589Z,63.74
2019-03-18T22:35:50.640Z,64.58
2019-03-18T22:39:57.550Z,64.39
2019-03-18T22:44:04.474Z,64.57
2019-03-18T22:48:11.470Z,66.35
2019-03-18T22:52:21.526Z,65.67
2019-03-18T22:56:28.389Z,65.82
2019-03-18T23:00:44.386Z,65.63
2019-03-18T23:04:51.341Z,65.92
2019-03-18T23:08:58.211Z,65.83
2019-03-18T23:13:05.158Z,66.49
2019-03-18T23:17:11.974Z,67.25
2019-03-18T23:21:18.901Z,66.98
2019-03-18T23:25:26.097Z,68.10
2019-03-18T23:29:33.250Z,68.52
2019-03-18T23:33:40.153Z,69.71
2019-03-18T23:37:47.132Z,69.04
2019-03-18T23:41:54.209Z,69.67
2019-03-18T23:46:01.114Z,69.61
2019-03-18T23:50:08.550Z,70.47
2019-03-18T23:54:15.827Z,70.52
2019-03-18T23:58:23.030Z,70.25
